sensor_id;sensor_type;location;lat;lon;timestamp;P1;durP1;ratioP1;P2;durP2;ratioP2
7515;SDS011;3799;47.184;8.538;2023-03-14T00:00:58;2.22;;;0.20;;
7515;SDS011;3799;47.184;8.538;2023-03-14T00:03:53;2.45;;;0.20;;
7515;SDS011;3799;47.184;8.538;2023-03-14T00:06:38;0.50;;;0.00;;
7515;SDS011;3799;47.184;8.538;2023-03-14T00:12:00;0.63;;;0.00;;
7515;SDS011;3799;47.184;8.538;2023-03-14T00:14:31;0.20;;;0.00;;
7515;SDS011;3799;47.184;8.538;2023-03-14T00:17:22;0.80;;;0.00;;
7515;SDS011;3799;47.184;8.538;2023-03-14T00:20:01;0.50;;;0.03;;
7515;SDS011;3799;47.184;8.538;2023-03-14T00:22:49;0.43;;;0.00;;
7515;SDS011;3799;47.184;8.538;2023-03-14T00:25:23;0.22;;;0.00;;
7515;SDS011;3799;47.184;8.538;2023-03-14T00:28:02;0.20;;;0.00;;
7515;SDS011;3799;47.184;8.538;2023-03-14T00:30:36;0.10;;;0.00;;
7515;SDS011;3799;47.184;8.538;2023-03-14T00:33:04;0.00;;;0.00;;
7515;SDS011;3799;47.184;8.538;2023-03-14T00:35:37;0.13;;;0.00;;
7515;SDS011;3799;47.184;8.538;2023-03-14T00:38:06;0.00;;;0.00;;
7515;SDS011;3799;47.184;8.538;2023-03-14T00:40:38;0.20;;;0.00;;
7515;SDS011;3799;47.184;8.538;2023-03-14T00:43:11;0.75;;;0.10;;
7515;SDS011;3799;47.184;8.538;2023-03-14T00:45:39;3.13;;;0.00;;
7515;SDS011;3799;47.184;8.538;2023-03-14T00:48:08;0.25;;;0.00;;
7515;SDS011;3799;47.184;8.538;2023-03-14T00:50:38;0.10;;;0.00;;
7515;SDS011;3799;47.184;8.538;2023-03-14T00:53:06;0.40;;;0.00;;
7515;SDS011;3799;47.184;8.538;2023-03-14T00:55:42;0.05;;;0.00;;
7515;SDS011;3799;47.184;8.538;2023-03-14T00:58:12;0.00;;;0.00;;
7515;SDS011;3799;47.184;8.538;2023-03-14T01:00:43;0.00;;;0.00;;
7515;SDS011;3799;47.184;8.538;2023-03-14T01:03:18;0.00;;;0.00;;
7515;SDS011;3799;47.184;8.538;2023-03-14T01:06:05;0.00;;;0.00;;
7515;SDS011;3799;47.184;8.538;2023-03-14T01:08:59;0.00;;;0.00;;
7515;SDS011;3799;47.184;8.538;2023-03-14T01:11:30;1.25;;;0.00;;
7515;SDS011;3799;47.184;8.538;2023-03-14T01:14:02;0.08;;;0.00;;
7515;SDS011;3799;47.184;8.538;2023-03-14T01:16:31;0.03;;;0.00;;
7515;SDS011;3799;47.184;8.538;2023-03-14T01:19:09;0.10;;;0.00;;
7515;SDS011;3799;47.184;8.538;2023-03-14T01:21:39;0.22;;;0.00;;
7515;SDS011;3799;47.184;8.538;2023-03-14T01:24:15;0.82;;;0.10;;
7515;SDS011;3799;47.184;8.538;2023-03-14T01:26:44;0.17;;;0.00;;
7515;SDS011;3799;47.184;8.538;2023-03-14T01:29:35;0.00;;;0.00;;
7515;SDS011;3799;47.184;8.538;2023-03-14T01:32:09;0.10;;;0.00;;
7515;SDS011;3799;47.184;8.538;2023-03-14T01:34:39;1.50;;;0.00;;
7515;SDS011;3799;47.184;8.538;2023-03-14T01:37:16;0.13;;;0.00;;
7515;SDS011;3799;47.184;8.538;2023-03-14T01:40:09;0.93;;;0.10;;
7515;SDS011;3799;47.184;8.538;2023-03-14T01:48:28;1.05;;;0.00;;
7515;SDS011;3799;47.184;8.538;2023-03-14T01:51:42;0.00;;;0.00;;
7515;SDS011;3799;47.184;8.538;2023-03-14T01:56:57;0.17;;;0.00;;
7515;SDS011;3799;47.184;8.538;2023-03-14T01:59:54;0.90;;;0.00;;
7515;SDS011;3799;47.184;8.538;2023-03-14T02:02:30;0.10;;;0.00;;
7515;SDS011;3799;47.184;8.538;2023-03-14T02:04:59;0.00;;;0.00;;
7515;SDS011;3799;47.184;8.538;2023-03-14T02:07:50;0.05;;;0.00;;
7515;SDS011;3799;47.184;8.538;2023-03-14T02:10:32;0.25;;;0.10;;
7515;SDS011;3799;47.184;8.538;2023-03-14T02:13:07;0.08;;;0.00;;
7515;SDS011;3799;47.184;8.538;2023-03-14T02:18:11;0.93;;;0.00;;
7515;SDS011;3799;47.184;8.538;2023-03-14T02:29:47;0.10;;;0.00;;
7515;SDS011;3799;47.184;8.538;2023-03-14T02:35:56;2.08;;;0.10;;
7515;SDS011;3799;47.184;8.538;2023-03-14T02:41:37;0.40;;;0.00;;
7515;SDS011;3799;47.184;8.538;2023-03-14T02:44:07;0.25;;;0.03;;
7515;SDS011;3799;47.184;8.538;2023-03-14T02:46:43;0.05;;;0.00;;
7515;SDS011;3799;47.184;8.538;2023-03-14T02:49:14;0.00;;;0.00;;
7515;SDS011;3799;47.184;8.538;2023-03-14T02:52:04;0.20;;;0.00;;
7515;SDS011;3799;47.184;8.538;2023-03-14T02:54:53;0.00;;;0.00;;
7515;SDS011;3799;47.184;8.538;2023-03-14T02:57:22;2.80;;;0.10;;
7515;SDS011;3799;47.184;8.538;2023-03-14T03:00:01;0.10;;;0.00;;
7515;SDS011;3799;47.184;8.538;2023-03-14T03:02:31;0.20;;;0.00;;
7515;SDS011;3799;47.184;8.538;2023-03-14T03:04:59;0.00;;;0.00;;
7515;SDS011;3799;47.184;8.538;2023-03-14T03:07:26;0.10;;;0.00;;
7515;SDS011;3799;47.184;8.538;2023-03-14T03:09:54;0.00;;;0.00;;
7515;SDS011;3799;47.184;8.538;2023-03-14T03:12:22;0.15;;;0.00;;
7515;SDS011;3799;47.184;8.538;2023-03-14T03:14:48;0.10;;;0.00;;
7515;SDS011;3799;47.184;8.538;2023-03-14T03:17:18;0.15;;;0.00;;
7515;SDS011;3799;47.184;8.538;2023-03-14T03:19:46;0.13;;;0.08;;
7515;SDS011;3799;47.184;8.538;2023-03-14T03:22:13;0.10;;;0.00;;
7515;SDS011;3799;47.184;8.538;2023-03-14T03:24:40;1.05;;;0.00;;
7515;SDS011;3799;47.184;8.538;2023-03-14T03:27:07;0.00;;;0.00;;
7515;SDS011;3799;47.184;8.538;2023-03-14T03:29:35;0.00;;;0.00;;
7515;SDS011;3799;47.184;8.538;2023-03-14T03:32:02;1.38;;;0.10;;
7515;SDS011;3799;47.184;8.538;2023-03-14T03:34:29;0.00;;;0.00;;
7515;SDS011;3799;47.184;8.538;2023-03-14T03:36:57;0.08;;;0.00;;
7515;SDS011;3799;47.184;8.538;2023-03-14T03:39:24;0.15;;;0.00;;
7515;SDS011;3799;47.184;8.538;2023-03-14T03:41:51;0.40;;;0.00;;
7515;SDS011;3799;47.184;8.538;2023-03-14T03:44:26;1.02;;;0.00;;
7515;SDS011;3799;47.184;8.538;2023-03-14T03:46:53;0.30;;;0.00;;
7515;SDS011;3799;47.184;8.538;2023-03-14T03:49:22;0.30;;;0.13;;
7515;SDS011;3799;47.184;8.538;2023-03-14T03:51:50;0.10;;;0.00;;
7515;SDS011;3799;47.184;8.538;2023-03-14T03:54:17;0.50;;;0.08;;
7515;SDS011;3799;47.184;8.538;2023-03-14T03:56:46;0.10;;;0.00;;
7515;SDS011;3799;47.184;8.538;2023-03-14T03:59:14;0.00;;;0.00;;
7515;SDS011;3799;47.184;8.538;2023-03-14T04:01:41;0.40;;;0.10;;
7515;SDS011;3799;47.184;8.538;2023-03-14T04:04:09;0.63;;;0.10;;
7515;SDS011;3799;47.184;8.538;2023-03-14T04:06:36;0.22;;;0.00;;
7515;SDS011;3799;47.184;8.538;2023-03-14T04:09:04;0.20;;;0.00;;
7515;SDS011;3799;47.184;8.538;2023-03-14T04:11:32;1.85;;;0.00;;
7515;SDS011;3799;47.184;8.538;2023-03-14T04:14:00;2.97;;;0.05;;
7515;SDS011;3799;47.184;8.538;2023-03-14T04:16:30;0.85;;;0.00;;
7515;SDS011;3799;47.184;8.538;2023-03-14T04:19:03;0.40;;;0.15;;
7515;SDS011;3799;47.184;8.538;2023-03-14T04:21:30;0.25;;;0.00;;
7515;SDS011;3799;47.184;8.538;2023-03-14T04:24:12;0.43;;;0.00;;
7515;SDS011;3799;47.184;8.538;2023-03-14T04:26:42;0.20;;;0.00;;
7515;SDS011;3799;47.184;8.538;2023-03-14T04:29:10;0.25;;;0.00;;
7515;SDS011;3799;47.184;8.538;2023-03-14T04:31:38;0.13;;;0.00;;
7515;SDS011;3799;47.184;8.538;2023-03-14T04:34:06;2.20;;;0.08;;
7515;SDS011;3799;47.184;8.538;2023-03-14T04:36:34;0.00;;;0.00;;
7515;SDS011;3799;47.184;8.538;2023-03-14T04:39:05;0.73;;;0.08;;
7515;SDS011;3799;47.184;8.538;2023-03-14T04:41:33;0.22;;;0.05;;
7515;SDS011;3799;47.184;8.538;2023-03-14T04:44:00;0.20;;;0.00;;
7515;SDS011;3799;47.184;8.538;2023-03-14T04:46:27;0.20;;;0.00;;
7515;SDS011;3799;47.184;8.538;2023-03-14T04:48:55;0.00;;;0.00;;
7515;SDS011;3799;47.184;8.538;2023-03-14T04:51:28;0.95;;;0.00;;
7515;SDS011;3799;47.184;8.538;2023-03-14T04:54:20;0.20;;;0.00;;
7515;SDS011;3799;47.184;8.538;2023-03-14T04:56:57;0.00;;;0.00;;
7515;SDS011;3799;47.184;8.538;2023-03-14T04:59:30;0.68;;;0.20;;
7515;SDS011;3799;47.184;8.538;2023-03-14T05:01:58;0.52;;;0.00;;
7515;SDS011;3799;47.184;8.538;2023-03-14T05:04:26;0.10;;;0.00;;
7515;SDS011;3799;47.184;8.538;2023-03-14T05:06:53;0.00;;;0.00;;
7515;SDS011;3799;47.184;8.538;2023-03-14T05:09:21;0.82;;;0.00;;
7515;SDS011;3799;47.184;8.538;2023-03-14T05:11:54;0.32;;;0.03;;
7515;SDS011;3799;47.184;8.538;2023-03-14T05:14:22;0.77;;;0.00;;
7515;SDS011;3799;47.184;8.538;2023-03-14T05:16:52;1.92;;;0.03;;
7515;SDS011;3799;47.184;8.538;2023-03-14T05:19:19;0.20;;;0.00;;
7515;SDS011;3799;47.184;8.538;2023-03-14T05:21:47;0.60;;;0.10;;
7515;SDS011;3799;47.184;8.538;2023-03-14T05:24:20;0.50;;;0.20;;
7515;SDS011;3799;47.184;8.538;2023-03-14T05:26:47;0.95;;;0.20;;
7515;SDS011;3799;47.184;8.538;2023-03-14T05:29:15;0.10;;;0.00;;
7515;SDS011;3799;47.184;8.538;2023-03-14T05:32:04;1.05;;;0.10;;
7515;SDS011;3799;47.184;8.538;2023-03-14T05:34:32;2.38;;;0.10;;
7515;SDS011;3799;47.184;8.538;2023-03-14T05:37:00;0.20;;;0.00;;
7515;SDS011;3799;47.184;8.538;2023-03-14T05:39:27;0.30;;;0.03;;
7515;SDS011;3799;47.184;8.538;2023-03-14T05:41:57;1.13;;;0.10;;
7515;SDS011;3799;47.184;8.538;2023-03-14T05:45:06;0.98;;;0.10;;
7515;SDS011;3799;47.184;8.538;2023-03-14T05:48:02;0.17;;;0.00;;
7515;SDS011;3799;47.184;8.538;2023-03-14T05:50:29;2.28;;;0.10;;
7515;SDS011;3799;47.184;8.538;2023-03-14T05:52:56;1.67;;;0.10;;
7515;SDS011;3799;47.184;8.538;2023-03-14T05:55:30;0.40;;;0.10;;
7515;SDS011;3799;47.184;8.538;2023-03-14T05:57:59;5.97;;;0.45;;
7515;SDS011;3799;47.184;8.538;2023-03-14T06:00:30;0.20;;;0.03;;
7515;SDS011;3799;47.184;8.538;2023-03-14T06:03:06;0.45;;;0.10;;
7515;SDS011;3799;47.184;8.538;2023-03-14T06:05:43;0.63;;;0.00;;
7515;SDS011;3799;47.184;8.538;2023-03-14T06:08:11;0.68;;;0.10;;
7515;SDS011;3799;47.184;8.538;2023-03-14T06:13:41;0.57;;;0.10;;
7515;SDS011;3799;47.184;8.538;2023-03-14T06:16:08;0.70;;;0.17;;
7515;SDS011;3799;47.184;8.538;2023-03-14T06:18:37;0.80;;;0.10;;
7515;SDS011;3799;47.184;8.538;2023-03-14T06:21:05;0.32;;;0.00;;
7515;SDS011;3799;47.184;8.538;2023-03-14T06:23:36;0.82;;;0.30;;
7515;SDS011;3799;47.184;8.538;2023-03-14T06:26:15;0.52;;;0.10;;
7515;SDS011;3799;47.184;8.538;2023-03-14T06:29:06;0.30;;;0.10;;
7515;SDS011;3799;47.184;8.538;2023-03-14T06:31:34;0.45;;;0.13;;
7515;SDS011;3799;47.184;8.538;2023-03-14T06:34:01;1.10;;;0.20;;
7515;SDS011;3799;47.184;8.538;2023-03-14T06:36:28;0.80;;;0.10;;
7515;SDS011;3799;47.184;8.538;2023-03-14T06:39:03;0.95;;;0.20;;
7515;SDS011;3799;47.184;8.538;2023-03-14T06:41:30;0.65;;;0.22;;
7515;SDS011;3799;47.184;8.538;2023-03-14T06:43:57;0.43;;;0.00;;
7515;SDS011;3799;47.184;8.538;2023-03-14T06:46:25;0.65;;;0.20;;
7515;SDS011;3799;47.184;8.538;2023-03-14T06:48:56;1.17;;;0.20;;
7515;SDS011;3799;47.184;8.538;2023-03-14T06:51:34;0.88;;;0.10;;
7515;SDS011;3799;47.184;8.538;2023-03-14T06:54:02;0.85;;;0.15;;
7515;SDS011;3799;47.184;8.538;2023-03-14T06:56:30;0.30;;;0.00;;
7515;SDS011;3799;47.184;8.538;2023-03-14T06:58:57;0.50;;;0.05;;
7515;SDS011;3799;47.184;8.538;2023-03-14T07:01:26;0.75;;;0.10;;
7515;SDS011;3799;47.184;8.538;2023-03-14T07:03:55;0.40;;;0.13;;
7515;SDS011;3799;47.184;8.538;2023-03-14T07:06:26;0.47;;;0.00;;
7515;SDS011;3799;47.184;8.538;2023-03-14T07:09:03;0.82;;;0.10;;
7515;SDS011;3799;47.184;8.538;2023-03-14T07:11:37;1.27;;;0.38;;
7515;SDS011;3799;47.184;8.538;2023-03-14T07:14:04;1.50;;;0.30;;
7515;SDS011;3799;47.184;8.538;2023-03-14T07:16:32;1.50;;;0.20;;
7515;SDS011;3799;47.184;8.538;2023-03-14T07:19:00;0.98;;;0.15;;
7515;SDS011;3799;47.184;8.538;2023-03-14T07:21:28;0.90;;;0.13;;
7515;SDS011;3799;47.184;8.538;2023-03-14T07:23:55;1.73;;;0.03;;
7515;SDS011;3799;47.184;8.538;2023-03-14T07:26:22;0.85;;;0.10;;
7515;SDS011;3799;47.184;8.538;2023-03-14T07:28:50;0.50;;;0.10;;
7515;SDS011;3799;47.184;8.538;2023-03-14T07:31:23;1.52;;;0.30;;
7515;SDS011;3799;47.184;8.538;2023-03-14T07:33:50;0.52;;;0.20;;
7515;SDS011;3799;47.184;8.538;2023-03-14T07:36:18;0.70;;;0.13;;
7515;SDS011;3799;47.184;8.538;2023-03-14T07:38:45;0.90;;;0.20;;
7515;SDS011;3799;47.184;8.538;2023-03-14T07:41:13;1.45;;;0.50;;
7515;SDS011;3799;47.184;8.538;2023-03-14T07:43:44;1.90;;;0.40;;
7515;SDS011;3799;47.184;8.538;2023-03-14T07:46:11;0.88;;;0.20;;
7515;SDS011;3799;47.184;8.538;2023-03-14T07:48:39;0.93;;;0.20;;
7515;SDS011;3799;47.184;8.538;2023-03-14T07:51:07;1.80;;;0.43;;
7515;SDS011;3799;47.184;8.538;2023-03-14T07:53:34;2.40;;;0.22;;
7515;SDS011;3799;47.184;8.538;2023-03-14T07:56:01;2.40;;;0.50;;
7515;SDS011;3799;47.184;8.538;2023-03-14T07:58:29;1.58;;;0.30;;
7515;SDS011;3799;47.184;8.538;2023-03-14T08:00:58;2.42;;;0.40;;
7515;SDS011;3799;47.184;8.538;2023-03-14T08:03:26;1.95;;;0.40;;
7515;SDS011;3799;47.184;8.538;2023-03-14T08:05:53;0.93;;;0.30;;
7515;SDS011;3799;47.184;8.538;2023-03-14T08:08:21;1.05;;;0.25;;
7515;SDS011;3799;47.184;8.538;2023-03-14T08:10:48;1.17;;;0.20;;
7515;SDS011;3799;47.184;8.538;2023-03-14T08:13:16;2.47;;;0.30;;
7515;SDS011;3799;47.184;8.538;2023-03-14T08:15:46;1.17;;;0.30;;
7515;SDS011;3799;47.184;8.538;2023-03-14T08:18:15;2.00;;;0.50;;
7515;SDS011;3799;47.184;8.538;2023-03-14T08:20:43;1.08;;;0.30;;
7515;SDS011;3799;47.184;8.538;2023-03-14T08:23:11;3.22;;;0.47;;
7515;SDS011;3799;47.184;8.538;2023-03-14T08:25:38;2.90;;;0.47;;
7515;SDS011;3799;47.184;8.538;2023-03-14T08:28:06;1.85;;;0.30;;
7515;SDS011;3799;47.184;8.538;2023-03-14T08:30:33;0.65;;;0.30;;
7515;SDS011;3799;47.184;8.538;2023-03-14T08:33:00;0.93;;;0.30;;
7515;SDS011;3799;47.184;8.538;2023-03-14T08:35:28;0.68;;;0.20;;
7515;SDS011;3799;47.184;8.538;2023-03-14T08:37:56;1.23;;;0.13;;
7515;SDS011;3799;47.184;8.538;2023-03-14T08:40:26;2.22;;;0.60;;
7515;SDS011;3799;47.184;8.538;2023-03-14T08:42:54;1.33;;;0.22;;
7515;SDS011;3799;47.184;8.538;2023-03-14T08:45:21;0.52;;;0.20;;
7515;SDS011;3799;47.184;8.538;2023-03-14T08:47:50;1.48;;;0.43;;
7515;SDS011;3799;47.184;8.538;2023-03-14T08:50:20;2.47;;;0.20;;
7515;SDS011;3799;47.184;8.538;2023-03-14T08:55:15;0.43;;;0.13;;
7515;SDS011;3799;47.184;8.538;2023-03-14T08:57:43;5.68;;;0.40;;
7515;SDS011;3799;47.184;8.538;2023-03-14T09:00:12;1.73;;;0.30;;
7515;SDS011;3799;47.184;8.538;2023-03-14T09:02:45;0.80;;;0.10;;
7515;SDS011;3799;47.184;8.538;2023-03-14T09:05:13;2.28;;;0.20;;
7515;SDS011;3799;47.184;8.538;2023-03-14T09:07:50;0.85;;;0.20;;
7515;SDS011;3799;47.184;8.538;2023-03-14T09:10:17;0.68;;;0.20;;
7515;SDS011;3799;47.184;8.538;2023-03-14T09:12:51;0.70;;;0.15;;
7515;SDS011;3799;47.184;8.538;2023-03-14T09:15:28;1.27;;;0.30;;
7515;SDS011;3799;47.184;8.538;2023-03-14T09:17:59;0.80;;;0.20;;
7515;SDS011;3799;47.184;8.538;2023-03-14T09:20:29;1.10;;;0.30;;
7515;SDS011;3799;47.184;8.538;2023-03-14T09:23:04;1.30;;;0.08;;
7515;SDS011;3799;47.184;8.538;2023-03-14T09:25:34;1.63;;;0.08;;
7515;SDS011;3799;47.184;8.538;2023-03-14T09:28:02;0.75;;;0.20;;
7515;SDS011;3799;47.184;8.538;2023-03-14T09:30:32;0.90;;;0.13;;
7515;SDS011;3799;47.184;8.538;2023-03-14T09:33:03;0.40;;;0.03;;
7515;SDS011;3799;47.184;8.538;2023-03-14T09:35:32;2.75;;;0.32;;
7515;SDS011;3799;47.184;8.538;2023-03-14T09:38:00;1.17;;;0.57;;
7515;SDS011;3799;47.184;8.538;2023-03-14T09:40:31;0.73;;;0.13;;
7515;SDS011;3799;47.184;8.538;2023-03-14T09:43:05;1.10;;;0.20;;
7515;SDS011;3799;47.184;8.538;2023-03-14T09:45:40;1.42;;;0.10;;
7515;SDS011;3799;47.184;8.538;2023-03-14T09:48:17;1.25;;;0.20;;
7515;SDS011;3799;47.184;8.538;2023-03-14T09:50:51;1.63;;;0.15;;
7515;SDS011;3799;47.184;8.538;2023-03-14T09:53:26;1.77;;;0.30;;
7515;SDS011;3799;47.184;8.538;2023-03-14T09:55:54;1.00;;;0.20;;
7515;SDS011;3799;47.184;8.538;2023-03-14T09:58:25;2.47;;;0.30;;
7515;SDS011;3799;47.184;8.538;2023-03-14T10:00:55;1.05;;;0.20;;
7515;SDS011;3799;47.184;8.538;2023-03-14T10:03:34;1.50;;;0.25;;
7515;SDS011;3799;47.184;8.538;2023-03-14T10:08:45;1.73;;;0.60;;
7515;SDS011;3799;47.184;8.538;2023-03-14T10:11:16;1.67;;;0.50;;
7515;SDS011;3799;47.184;8.538;2023-03-14T10:16:33;1.50;;;0.60;;
7515;SDS011;3799;47.184;8.538;2023-03-14T10:19:14;1.20;;;0.32;;
7515;SDS011;3799;47.184;8.538;2023-03-14T10:21:52;2.13;;;0.65;;
7515;SDS011;3799;47.184;8.538;2023-03-14T10:24:22;1.05;;;0.20;;
7515;SDS011;3799;47.184;8.538;2023-03-14T10:26:59;1.80;;;0.40;;
7515;SDS011;3799;47.184;8.538;2023-03-14T10:29:29;1.40;;;0.60;;
7515;SDS011;3799;47.184;8.538;2023-03-14T10:32:03;1.33;;;0.40;;
7515;SDS011;3799;47.184;8.538;2023-03-14T10:34:36;1.65;;;0.75;;
7515;SDS011;3799;47.184;8.538;2023-03-14T10:37:06;1.23;;;0.47;;
7515;SDS011;3799;47.184;8.538;2023-03-14T10:39:50;1.80;;;0.45;;
7515;SDS011;3799;47.184;8.538;2023-03-14T10:42:33;2.05;;;0.82;;
7515;SDS011;3799;47.184;8.538;2023-03-14T10:45:06;2.00;;;0.60;;
7515;SDS011;3799;47.184;8.538;2023-03-14T10:47:52;1.73;;;0.68;;
7515;SDS011;3799;47.184;8.538;2023-03-14T10:50:30;4.90;;;1.10;;
7515;SDS011;3799;47.184;8.538;2023-03-14T10:53:07;1.65;;;0.73;;
7515;SDS011;3799;47.184;8.538;2023-03-14T10:55:42;1.38;;;0.35;;
7515;SDS011;3799;47.184;8.538;2023-03-14T10:58:19;2.13;;;0.55;;
7515;SDS011;3799;47.184;8.538;2023-03-14T11:01:05;2.38;;;0.52;;
7515;SDS011;3799;47.184;8.538;2023-03-14T11:03:36;3.08;;;0.70;;
7515;SDS011;3799;47.184;8.538;2023-03-14T11:06:20;1.17;;;0.20;;
7515;SDS011;3799;47.184;8.538;2023-03-14T11:08:57;1.50;;;0.35;;
7515;SDS011;3799;47.184;8.538;2023-03-14T11:11:35;1.05;;;0.32;;
7515;SDS011;3799;47.184;8.538;2023-03-14T11:14:12;1.10;;;0.17;;
7515;SDS011;3799;47.184;8.538;2023-03-14T11:16:52;1.45;;;0.40;;
7515;SDS011;3799;47.184;8.538;2023-03-14T11:19:32;1.05;;;0.20;;
7515;SDS011;3799;47.184;8.538;2023-03-14T11:28:09;3.72;;;0.40;;
7515;SDS011;3799;47.184;8.538;2023-03-14T11:36:51;2.53;;;0.43;;
7515;SDS011;3799;47.184;8.538;2023-03-14T11:39:25;0.98;;;0.38;;
7515;SDS011;3799;47.184;8.538;2023-03-14T11:42:13;0.25;;;0.00;;
7515;SDS011;3799;47.184;8.538;2023-03-14T11:44:44;1.40;;;0.10;;
7515;SDS011;3799;47.184;8.538;2023-03-14T11:50:02;0.05;;;0.00;;
7515;SDS011;3799;47.184;8.538;2023-03-14T11:52:46;1.05;;;0.00;;
7515;SDS011;3799;47.184;8.538;2023-03-14T11:58:21;0.10;;;0.00;;
7515;SDS011;3799;47.184;8.538;2023-03-14T12:00:53;1.80;;;0.32;;
7515;SDS011;3799;47.184;8.538;2023-03-14T12:03:29;0.00;;;0.00;;
7515;SDS011;3799;47.184;8.538;2023-03-14T12:08:55;0.03;;;0.00;;
7515;SDS011;3799;47.184;8.538;2023-03-14T12:14:00;0.00;;;0.00;;
7515;SDS011;3799;47.184;8.538;2023-03-14T12:16:35;0.32;;;0.00;;
7515;SDS011;3799;47.184;8.538;2023-03-14T12:21:57;0.00;;;0.00;;
7515;SDS011;3799;47.184;8.538;2023-03-14T12:24:37;0.28;;;0.00;;
7515;SDS011;3799;47.184;8.538;2023-03-14T12:27:12;1.38;;;0.00;;
7515;SDS011;3799;47.184;8.538;2023-03-14T12:30:04;0.00;;;0.00;;
7515;SDS011;3799;47.184;8.538;2023-03-14T12:35:43;0.00;;;0.00;;
7515;SDS011;3799;47.184;8.538;2023-03-14T12:38:17;0.17;;;0.00;;
7515;SDS011;3799;47.184;8.538;2023-03-14T12:41:17;0.03;;;0.00;;
7515;SDS011;3799;47.184;8.538;2023-03-14T12:43:46;1.13;;;0.00;;
7515;SDS011;3799;47.184;8.538;2023-03-14T12:51:53;0.17;;;0.00;;
7515;SDS011;3799;47.184;8.538;2023-03-14T12:57:33;0.30;;;0.00;;
7515;SDS011;3799;47.184;8.538;2023-03-14T13:00:21;0.50;;;0.00;;
7515;SDS011;3799;47.184;8.538;2023-03-14T13:02:52;0.30;;;0.00;;
7515;SDS011;3799;47.184;8.538;2023-03-14T13:05:20;0.47;;;0.00;;
7515;SDS011;3799;47.184;8.538;2023-03-14T13:10:53;0.10;;;0.00;;
7515;SDS011;3799;47.184;8.538;2023-03-14T13:13:31;0.10;;;0.00;;
7515;SDS011;3799;47.184;8.538;2023-03-14T13:16:25;0.03;;;0.00;;
7515;SDS011;3799;47.184;8.538;2023-03-14T13:19:01;0.00;;;0.00;;
7515;SDS011;3799;47.184;8.538;2023-03-14T13:21:41;0.30;;;0.00;;
7515;SDS011;3799;47.184;8.538;2023-03-14T13:24:23;1.45;;;0.00;;
7515;SDS011;3799;47.184;8.538;2023-03-14T13:26:58;0.13;;;0.03;;
7515;SDS011;3799;47.184;8.538;2023-03-14T13:29:32;0.47;;;0.13;;
7515;SDS011;3799;47.184;8.538;2023-03-14T13:35:22;0.20;;;0.00;;
7515;SDS011;3799;47.184;8.538;2023-03-14T13:37:59;0.80;;;0.10;;
7515;SDS011;3799;47.184;8.538;2023-03-14T13:40:40;0.60;;;0.15;;
7515;SDS011;3799;47.184;8.538;2023-03-14T13:43:14;0.20;;;0.00;;
7515;SDS011;3799;47.184;8.538;2023-03-14T13:45:55;1.35;;;0.13;;
7515;SDS011;3799;47.184;8.538;2023-03-14T13:48:30;1.65;;;0.15;;
7515;SDS011;3799;47.184;8.538;2023-03-14T13:53:30;3.28;;;0.28;;
7515;SDS011;3799;47.184;8.538;2023-03-14T13:56:17;3.00;;;0.20;;
7515;SDS011;3799;47.184;8.538;2023-03-14T13:58:49;0.45;;;0.10;;
7515;SDS011;3799;47.184;8.538;2023-03-14T14:03:49;1.08;;;0.00;;
7515;SDS011;3799;47.184;8.538;2023-03-14T14:06:32;2.53;;;0.10;;
7515;SDS011;3799;47.184;8.538;2023-03-14T14:09:27;2.22;;;0.50;;
7515;SDS011;3799;47.184;8.538;2023-03-14T14:12:17;1.45;;;0.10;;
7515;SDS011;3799;47.184;8.538;2023-03-14T14:23:19;0.08;;;0.00;;
7515;SDS011;3799;47.184;8.538;2023-03-14T14:26:13;0.15;;;0.00;;
7515;SDS011;3799;47.184;8.538;2023-03-14T14:31:28;1.15;;;0.10;;
7515;SDS011;3799;47.184;8.538;2023-03-14T14:34:00;0.30;;;0.10;;
7515;SDS011;3799;47.184;8.538;2023-03-14T14:36:43;0.13;;;0.00;;
7515;SDS011;3799;47.184;8.538;2023-03-14T14:39:19;1.15;;;0.17;;
7515;SDS011;3799;47.184;8.538;2023-03-14T14:42:12;0.73;;;0.10;;
7515;SDS011;3799;47.184;8.538;2023-03-14T14:44:43;0.55;;;0.10;;
7515;SDS011;3799;47.184;8.538;2023-03-14T14:47:14;0.73;;;0.00;;
7515;SDS011;3799;47.184;8.538;2023-03-14T14:49:47;1.85;;;0.10;;
7515;SDS011;3799;47.184;8.538;2023-03-14T14:52:21;0.20;;;0.00;;
7515;SDS011;3799;47.184;8.538;2023-03-14T14:55:03;0.70;;;0.10;;
7515;SDS011;3799;47.184;8.538;2023-03-14T14:57:51;1.50;;;0.08;;
7515;SDS011;3799;47.184;8.538;2023-03-14T15:00:23;0.20;;;0.00;;
7515;SDS011;3799;47.184;8.538;2023-03-14T15:03:19;0.32;;;0.00;;
7515;SDS011;3799;47.184;8.538;2023-03-14T15:05:49;0.70;;;0.10;;
7515;SDS011;3799;47.184;8.538;2023-03-14T15:08:20;0.20;;;0.00;;
7515;SDS011;3799;47.184;8.538;2023-03-14T15:10:57;2.47;;;0.10;;
7515;SDS011;3799;47.184;8.538;2023-03-14T15:13:26;1.00;;;0.20;;
7515;SDS011;3799;47.184;8.538;2023-03-14T15:15:54;0.85;;;0.00;;
7515;SDS011;3799;47.184;8.538;2023-03-14T15:21:00;0.47;;;0.00;;
7515;SDS011;3799;47.184;8.538;2023-03-14T15:23:34;0.52;;;0.10;;
7515;SDS011;3799;47.184;8.538;2023-03-14T15:26:01;2.10;;;0.05;;
7515;SDS011;3799;47.184;8.538;2023-03-14T15:28:45;0.25;;;0.03;;
7515;SDS011;3799;47.184;8.538;2023-03-14T15:31:14;0.20;;;0.00;;
7515;SDS011;3799;47.184;8.538;2023-03-14T15:33:44;0.90;;;0.28;;
7515;SDS011;3799;47.184;8.538;2023-03-14T15:38:49;0.32;;;0.10;;
7515;SDS011;3799;47.184;8.538;2023-03-14T15:41:17;0.80;;;0.10;;
7515;SDS011;3799;47.184;8.538;2023-03-14T15:43:54;1.30;;;0.17;;
7515;SDS011;3799;47.184;8.538;2023-03-14T15:46:23;0.68;;;0.10;;
7515;SDS011;3799;47.184;8.538;2023-03-14T15:48:55;2.40;;;0.30;;
7515;SDS011;3799;47.184;8.538;2023-03-14T15:51:22;0.82;;;0.10;;
7515;SDS011;3799;47.184;8.538;2023-03-14T15:53:50;1.48;;;0.10;;
7515;SDS011;3799;47.184;8.538;2023-03-14T15:56:19;0.65;;;0.30;;
7515;SDS011;3799;47.184;8.538;2023-03-14T15:58:50;0.95;;;0.10;;
7515;SDS011;3799;47.184;8.538;2023-03-14T16:01:17;1.80;;;0.00;;
7515;SDS011;3799;47.184;8.538;2023-03-14T16:03:48;1.00;;;0.15;;
7515;SDS011;3799;47.184;8.538;2023-03-14T16:06:18;0.80;;;0.20;;
7515;SDS011;3799;47.184;8.538;2023-03-14T16:08:47;0.60;;;0.10;;
7515;SDS011;3799;47.184;8.538;2023-03-14T16:11:22;0.50;;;0.00;;
7515;SDS011;3799;47.184;8.538;2023-03-14T16:14:13;1.08;;;0.13;;
7515;SDS011;3799;47.184;8.538;2023-03-14T16:16:40;1.00;;;0.10;;
7515;SDS011;3799;47.184;8.538;2023-03-14T16:19:08;1.13;;;0.10;;
7515;SDS011;3799;47.184;8.538;2023-03-14T16:21:36;0.17;;;0.00;;
7515;SDS011;3799;47.184;8.538;2023-03-14T16:24:04;0.47;;;0.03;;
7515;SDS011;3799;47.184;8.538;2023-03-14T16:26:32;0.90;;;0.10;;
7515;SDS011;3799;47.184;8.538;2023-03-14T16:29:03;0.08;;;0.00;;
7515;SDS011;3799;47.184;8.538;2023-03-14T16:31:30;0.40;;;0.10;;
7515;SDS011;3799;47.184;8.538;2023-03-14T16:34:01;0.30;;;0.00;;
7515;SDS011;3799;47.184;8.538;2023-03-14T16:36:33;0.13;;;0.00;;
7515;SDS011;3799;47.184;8.538;2023-03-14T16:39:00;1.17;;;0.10;;
7515;SDS011;3799;47.184;8.538;2023-03-14T16:41:34;0.43;;;0.10;;
7515;SDS011;3799;47.184;8.538;2023-03-14T16:44:01;0.28;;;0.10;;
7515;SDS011;3799;47.184;8.538;2023-03-14T16:46:31;3.47;;;0.28;;
7515;SDS011;3799;47.184;8.538;2023-03-14T16:49:03;0.20;;;0.00;;
7515;SDS011;3799;47.184;8.538;2023-03-14T16:51:38;1.20;;;0.00;;
7515;SDS011;3799;47.184;8.538;2023-03-14T16:54:09;0.52;;;0.10;;
7515;SDS011;3799;47.184;8.538;2023-03-14T16:56:47;0.22;;;0.00;;
7515;SDS011;3799;47.184;8.538;2023-03-14T16:59:24;0.70;;;0.00;;
7515;SDS011;3799;47.184;8.538;2023-03-14T17:02:02;0.40;;;0.00;;
7515;SDS011;3799;47.184;8.538;2023-03-14T17:04:29;0.38;;;0.05;;
7515;SDS011;3799;47.184;8.538;2023-03-14T17:07:00;2.60;;;0.13;;
7515;SDS011;3799;47.184;8.538;2023-03-14T17:09:37;0.43;;;0.00;;
7515;SDS011;3799;47.184;8.538;2023-03-14T17:12:06;0.30;;;0.03;;
7515;SDS011;3799;47.184;8.538;2023-03-14T17:14:39;0.28;;;0.00;;
7515;SDS011;3799;47.184;8.538;2023-03-14T17:17:20;0.90;;;0.00;;
7515;SDS011;3799;47.184;8.538;2023-03-14T17:19:50;0.28;;;0.00;;
7515;SDS011;3799;47.184;8.538;2023-03-14T17:22:20;0.90;;;0.00;;
7515;SDS011;3799;47.184;8.538;2023-03-14T17:24:53;0.50;;;0.03;;
7515;SDS011;3799;47.184;8.538;2023-03-14T17:27:29;0.40;;;0.10;;
7515;SDS011;3799;47.184;8.538;2023-03-14T17:29:57;0.25;;;0.00;;
7515;SDS011;3799;47.184;8.538;2023-03-14T17:32:27;0.25;;;0.03;;
7515;SDS011;3799;47.184;8.538;2023-03-14T17:35:00;1.65;;;0.10;;
7515;SDS011;3799;47.184;8.538;2023-03-14T17:37:28;0.22;;;0.00;;